Time;durP1;ratioP1;P1;durP2;ratioP2;P2;SDS_P1;SDS_P2;PMS_P1;PMS_P2;Temp;Humidity;BMP_temperature;BMP_pressure;BME280_temperature;BME280_humidity;BME280_pressure;Samples;Min_cycle;Max_cycle;Signal;HPM_P1;HPM_P2
2022/03/22 00:01:26;;;;;;;21.65;14.13;;;6.20;74.40;;;;;;4973095;28;20038;-51
2022/03/22 00:03:52;;;;;;;20.33;14.07;;;6.20;74.30;;;;;;4978450;28;20038;-51
2022/03/22 00:06:19;;;;;;;20.67;13.85;;;6.20;74.40;;;;;;4982622;28;20050;-51
2022/03/22 00:08:45;;;;;;;19.98;15.63;;;6.10;74.50;;;;;;4980814;28;20042;-51
2022/03/22 00:11:12;;;;;;;20.55;13.30;;;6.00;74.60;;;;;;4984529;28;20088;-51
2022/03/22 00:13:38;;;;;;;20.90;14.07;;;5.80;75.30;;;;;;4979392;28;20045;-52
2022/03/22 00:16:05;;;;;;;24.85;16.05;;;5.80;75.90;;;;;;4943581;28;20120;-51
2022/03/22 00:18:31;;;;;;;21.25;13.95;;;5.70;76.30;;;;;;4933622;28;20124;-51
2022/03/22 00:20:57;;;;;;;27.33;14.30;;;5.60;76.60;;;;;;4989973;28;20043;-51
2022/03/22 00:23:24;;;;;;;21.75;13.38;;;5.40;77.10;;;;;;4982030;28;20490;-51
2022/03/22 00:25:50;;;;;;;18.77;12.50;;;5.50;77.30;;;;;;4985807;28;20042;-51
2022/03/22 00:28:16;;;;;;;21.85;13.13;;;5.50;77.30;;;;;;4982542;28;20581;-51
2022/03/22 00:30:42;;;;;;;19.40;13.82;;;5.40;77.50;;;;;;4982874;28;20125;-51
2022/03/22 00:33:09;;;;;;;22.33;14.32;;;5.40;77.60;;;;;;4983294;28;20122;-52
2022/03/22 00:35:38;;;;;;;19.73;13.40;;;5.40;77.60;;;;;;4942143;28;20039;-51
2022/03/22 00:38:06;;;;;;;20.00;14.23;;;5.40;77.60;;;;;;4964927;28;20043;-51
2022/03/22 00:40:33;;;;;;;21.73;14.10;;;5.40;77.70;;;;;;4961353;28;20030;-51
2022/03/22 00:43:00;;;;;;;18.63;12.93;;;5.40;77.90;;;;;;4967533;28;20475;-51
2022/03/22 00:45:28;;;;;;;21.35;15.00;;;5.30;77.90;;;;;;4947669;28;20085;-51
2022/03/22 00:47:56;;;;;;;20.65;13.15;;;5.40;78.10;;;;;;4964735;28;20035;-51
2022/03/22 00:50:28;;;;;;;22.77;15.93;;;5.30;78.10;;;;;;4967115;28;20077;-51
2022/03/22 00:52:54;;;;;;;;;;;5.30;78.10;;;;;;4964398;28;20244;-52
2022/03/22 00:55:24;;;;;;;25.63;16.77;;;5.30;77.90;;;;;;4924851;28;19910;-51
2022/03/22 00:57:51;;;;;;;18.48;13.55;;;5.30;77.90;;;;;;4929043;29;20047;-51
2022/03/22 01:00:19;;;;;;;19.58;12.80;;;5.40;77.90;;;;;;4966959;28;20031;-51
2022/03/22 01:02:50;;;;;;;22.48;13.60;;;5.40;77.80;;;;;;4970407;28;20529;-51
2022/03/22 01:05:21;;;;;;;27.75;17.42;;;5.30;77.70;;;;;;4962260;28;20027;-51
2022/03/22 01:07:50;;;;;;;74.32;57.03;;;5.30;77.90;;;;;;4966864;28;20039;-52
2022/03/22 01:10:17;;;;;;;20.58;13.43;;;5.20;77.80;;;;;;4960293;28;20038;-51
2022/03/22 01:12:45;;;;;;;19.92;12.63;;;5.20;78.40;;;;;;4969615;28;20031;-51
2022/03/22 01:15:15;;;;;;;21.83;13.43;;;5.20;78.60;;;;;;4940788;28;20402;-52
2022/03/22 01:17:41;;;;;;;19.70;13.60;;;5.20;79.00;;;;;;4974064;28;20550;-50
2022/03/22 01:20:09;;;;;;;22.05;13.75;;;5.10;78.80;;;;;;4982489;28;20030;-51
2022/03/22 01:22:39;;;;;;;19.02;14.05;;;5.10;79.10;;;;;;4965110;28;20406;-51
2022/03/22 01:25:10;;;;;;;19.58;13.35;;;5.20;79.00;;;;;;4938656;28;20471;-51
2022/03/22 01:27:36;;;;;;;18.80;13.73;;;5.10;79.00;;;;;;4981235;28;20045;-51
2022/03/22 01:30:05;;;;;;;34.67;17.08;;;5.10;79.10;;;;;;4982319;28;20041;-51
2022/03/22 01:32:30;;;;;;;19.52;13.93;;;5.10;78.90;;;;;;4945455;28;20096;-51
2022/03/22 01:34:56;;;;;;;20.92;13.48;;;5.20;79.10;;;;;;4952438;29;20068;-51
2022/03/22 01:37:22;;;;;;;21.08;13.70;;;5.20;79.20;;;;;;4945851;29;20058;-54
2022/03/22 01:39:48;;;;;;;20.50;13.15;;;5.20;79.10;;;;;;4949068;29;20035;-51
2022/03/22 01:42:13;;;;;;;21.80;12.95;;;5.20;79.10;;;;;;4917866;29;20041;-53
2022/03/22 01:44:39;;;;;;;19.52;12.70;;;5.10;79.20;;;;;;4949966;29;20032;-51
2022/03/22 01:47:06;;;;;;;23.27;13.93;;;5.10;79.60;;;;;;4903800;29;20050;-52
2022/03/22 01:49:33;;;;;;;20.02;13.48;;;5.10;79.80;;;;;;4935552;29;20209;-51
2022/03/22 01:52:00;;;;;;;21.98;14.27;;;5.00;79.80;;;;;;4945625;29;20115;-51
2022/03/22 01:54:25;;;;;;;20.73;12.70;;;5.00;79.90;;;;;;4951641;29;20038;-51
2022/03/22 01:56:51;;;;;;;35.25;14.55;;;5.00;79.80;;;;;;4923554;29;20040;-51
2022/03/22 01:59:17;;;;;;;20.92;14.40;;;5.00;80.00;;;;;;4939102;29;20070;-51
2022/03/22 02:07:14;;;;;;;18.75;13.30;;;5.00;80.00;;;;;;4985776;28;20136;-51
2022/03/22 02:09:42;;;;;;;19.52;13.95;;;5.00;80.00;;;;;;4981429;28;20038;-51
2022/03/22 02:12:09;;;;;;;21.42;13.95;;;5.10;80.10;;;;;;4968348;28;20042;-52
2022/03/22 02:14:35;;;;;;;21.02;14.00;;;4.90;80.10;;;;;;4985376;28;20422;-51
2022/03/22 02:17:10;;;;;;;20.85;14.48;;;4.90;81.00;;;;;;4981916;28;20161;-52
2022/03/22 02:19:40;;;;;;;23.65;14.80;;;4.90;80.60;;;;;;4917912;29;20051;-51
2022/03/22 02:22:11;;;;;;;26.08;15.38;;;4.90;80.60;;;;;;4951526;28;20364;-52
2022/03/22 02:24:38;;;;;;;29.58;18.35;;;4.90;80.20;;;;;;4990086;28;20127;-51
2022/03/22 02:27:05;;;;;;;28.10;17.85;;;4.70;80.50;;;;;;4992310;28;20038;-51
2022/03/22 02:29:31;;;;;;;29.00;17.73;;;4.60;80.90;;;;;;4987845;28;20058;-51
2022/03/22 02:31:57;;;;;;;26.20;17.88;;;4.60;80.80;;;;;;4985131;28;20475;-52
2022/03/22 02:34:22;;;;;;;29.42;18.25;;;4.70;80.60;;;;;;4989102;28;20027;-51
2022/03/22 02:36:48;;;;;;;31.25;20.38;;;4.70;80.60;;;;;;4976199;28;20038;-52
2022/03/22 02:39:14;;;;;;;29.05;18.77;;;4.70;80.60;;;;;;4982814;28;20118;-51
2022/03/22 02:41:42;;;;;;;32.30;20.67;;;4.80;80.50;;;;;;4987541;28;20191;-51
2022/03/22 02:44:10;;;;;;;30.60;20.88;;;4.80;80.40;;;;;;4989178;28;20077;-50
2022/03/22 02:46:37;;;;;;;33.42;20.13;;;4.80;80.30;;;;;;4989811;28;20058;-51
2022/03/22 02:49:04;;;;;;;45.97;21.60;;;4.90;80.20;;;;;;4985421;28;20113;-51
2022/03/22 02:51:30;;;;;;;39.85;20.65;;;4.80;80.30;;;;;;4992184;28;20030;-52
2022/03/22 02:53:56;;;;;;;29.70;20.35;;;4.70;80.60;;;;;;4983897;28;20038;-52
2022/03/22 02:56:22;;;;;;;32.80;20.98;;;4.70;80.60;;;;;;4995512;28;20390;-52
2022/03/22 02:58:48;;;;;;;32.42;20.48;;;4.70;80.70;;;;;;4988111;28;20080;-51
2022/03/22 03:01:13;;;;;;;29.52;20.08;;;4.70;80.80;;;;;;4980021;28;20057;-51
2022/03/22 03:03:39;;;;;;;29.95;20.50;;;4.70;80.60;;;;;;4991338;28;20121;-51
2022/03/22 03:06:06;;;;;;;28.52;19.10;;;4.70;80.60;;;;;;4993256;28;20084;-51
2022/03/22 03:08:32;;;;;;;28.73;19.52;;;4.70;80.70;;;;;;4983679;28;20050;-51
2022/03/22 03:10:58;;;;;;;28.83;19.45;;;4.60;80.90;;;;;;4989774;28;20030;-51
2022/03/22 03:13:24;;;;;;;29.63;18.63;;;4.60;81.00;;;;;;4989814;28;20173;-52
2022/03/22 03:15:52;;;;;;;31.58;17.55;;;4.70;81.10;;;;;;4980980;28;20039;-51
2022/03/22 03:18:19;;;;;;;29.42;17.70;;;4.60;81.00;;;;;;4986703;28;20045;-51
2022/03/22 03:20:44;;;;;;;27.95;17.90;;;4.60;81.00;;;;;;4985608;28;20073;-51
2022/03/22 03:23:10;;;;;;;23.45;17.15;;;4.60;81.20;;;;;;4972913;28;20050;-52
2022/03/22 03:25:36;;;;;;;26.08;16.40;;;4.50;81.20;;;;;;4979365;28;20431;-51
2022/03/22 03:28:02;;;;;;;30.27;18.60;;;4.50;82.20;;;;;;4986035;28;20054;-51
2022/03/22 03:30:29;;;;;;;29.85;18.13;;;4.50;81.30;;;;;;4983691;28;20096;-51
2022/03/22 03:32:55;;;;;;;26.20;17.27;;;4.40;81.80;;;;;;4977492;28;20035;-51
2022/03/22 03:35:21;;;;;;;30.15;17.85;;;4.40;81.40;;;;;;4985071;28;20122;-51
2022/03/22 03:37:47;;;;;;;26.80;18.25;;;4.50;81.90;;;;;;4972982;28;20043;-51
2022/03/22 03:40:13;;;;;;;26.42;17.13;;;4.40;82.60;;;;;;4988302;28;20042;-52
2022/03/22 03:42:42;;;;;;;26.08;17.17;;;4.50;81.90;;;;;;4942503;28;20078;-51
2022/03/22 03:47:56;;;;;;;25.48;15.38;;;4.40;82.20;;;;;;4969921;28;20443;-51
2022/03/22 03:50:22;;;;;;;28.33;16.67;;;4.40;82.20;;;;;;4961061;28;20031;-51
2022/03/22 03:52:49;;;;;;;28.73;18.08;;;4.40;82.50;;;;;;4949782;28;20035;-51
2022/03/22 03:55:15;;;;;;;30.38;17.58;;;4.30;82.50;;;;;;4971482;28;20046;-52
2022/03/22 03:57:40;;;;;;;24.00;16.08;;;4.20;82.60;;;;;;4986932;28;20019;-52
2022/03/22 04:00:08;;;;;;;24.67;17.90;;;4.30;82.60;;;;;;4979396;28;20038;-51
2022/03/22 04:02:34;;;;;;;26.38;16.67;;;4.30;82.40;;;;;;4991045;28;20038;-51
2022/03/22 04:05:00;;;;;;;28.33;17.52;;;4.30;82.50;;;;;;4985479;28;20421;-51
2022/03/22 04:07:26;;;;;;;23.05;16.25;;;4.30;82.60;;;;;;4992664;28;20037;-51
2022/03/22 04:09:56;;;;;;;27.27;18.58;;;;;;;;;;4981336;28;20073;-54
2022/03/22 04:12:22;;;;;;;34.00;17.58;;;4.30;82.20;;;;;;4986906;28;20058;-52
2022/03/22 04:14:50;;;;;;;30.77;18.27;;;4.20;83.50;;;;;;4967857;28;20508;-51
2022/03/22 04:17:17;;;;;;;25.48;17.05;;;4.20;83.00;;;;;;4970328;28;20043;-51
2022/03/22 04:19:45;;;;;;;28.70;19.33;;;4.20;82.70;;;;;;4959498;28;20122;-51
2022/03/22 04:22:11;;;;;;;28.88;18.35;;;4.30;82.80;;;;;;4965394;28;20114;-52
2022/03/22 04:24:37;;;;;;;28.52;17.38;;;4.10;83.00;;;;;;4939167;28;20646;-51
2022/03/22 04:32:43;;;;;;;25.85;16.70;;;4.10;84.10;;;;;;4969377;28;20090;-51
2022/03/22 04:35:19;;;;;;;28.52;18.48;;;4.00;83.60;;;;;;4964148;28;20495;-51
2022/03/22 04:37:49;;;;;;;26.77;16.30;;;4.00;83.90;;;;;;4970436;28;20058;-51
2022/03/22 04:40:16;;;;;;;28.45;18.63;;;4.00;84.30;;;;;;4966693;28;20043;-51
2022/03/22 04:42:43;;;;;;;27.30;18.50;;;4.00;84.60;;;;;;4965710;28;20034;-51
2022/03/22 04:45:10;;;;;;;29.90;17.85;;;4.00;84.30;;;;;;4972553;28;20121;-51
2022/03/22 04:47:36;;;;;;;33.50;17.35;;;4.00;84.50;;;;;;4992774;28;20521;-52
2022/03/22 04:50:07;;;;;;;25.20;17.05;;;4.00;84.50;;;;;;4982926;28;20127;-51
2022/03/22 04:58:03;;;;;;;29.00;16.75;;;3.70;85.30;;;;;;4988136;28;20025;-51
2022/03/22 05:00:30;;;;;;;27.25;17.23;;;3.60;85.60;;;;;;4987512;28;20027;-52
2022/03/22 05:02:56;;;;;;;28.83;17.13;;;3.70;85.40;;;;;;4984984;28;20356;-51
2022/03/22 05:08:06;;;;;;;31.60;17.00;;;3.90;84.90;;;;;;4984348;28;20110;-51
2022/03/22 05:10:36;;;;;;;33.45;17.65;;;4.10;84.50;;;;;;4986905;28;20026;-51
2022/03/22 05:13:03;;;;;;;26.38;16.85;;;4.20;84.60;;;;;;4990127;28;20042;-51
2022/03/22 05:15:31;;;;;;;29.88;16.98;;;4.40;83.70;;;;;;4981604;28;20042;-51
2022/03/22 05:17:57;;;;;;;25.42;15.52;;;4.40;83.30;;;;;;4992539;28;20039;-47
2022/03/22 05:20:23;;;;;;;26.95;16.77;;;4.50;83.20;;;;;;4987691;28;20459;-54
2022/03/22 05:22:49;;;;;;;24.95;15.07;;;4.50;82.80;;;;;;4966123;28;20094;-54
2022/03/22 05:25:15;;;;;;;22.77;16.30;;;4.60;82.50;;;;;;4988305;28;20023;-53
2022/03/22 05:27:41;;;;;;;25.08;17.25;;;4.50;82.60;;;;;;4990695;28;20034;-53
2022/03/22 05:30:08;;;;;;;26.70;17.00;;;4.50;82.60;;;;;;4985368;28;20030;-52
2022/03/22 05:32:34;;;;;;;22.67;16.52;;;4.50;83.20;;;;;;4982935;28;20085;-54
2022/03/22 05:35:00;;;;;;;32.13;18.98;;;4.60;83.10;;;;;;4895235;28;20038;-53
2022/03/22 05:37:26;;;;;;;40.85;18.88;;;4.50;83.40;;;;;;4988316;28;20560;-53
2022/03/22 05:39:52;;;;;;;35.40;19.73;;;4.60;82.90;;;;;;4971640;28;20046;-54
2022/03/22 05:42:18;;;;;;;28.80;18.20;;;4.50;83.40;;;;;;4984186;28;20038;-53
2022/03/22 05:44:44;;;;;;;27.77;17.23;;;4.60;83.40;;;;;;4989577;28;20340;-54
2022/03/22 05:47:10;;;;;;;32.30;17.90;;;4.60;83.40;;;;;;4988159;28;20041;-54
2022/03/22 05:49:37;;;;;;;27.02;16.70;;;4.60;83.60;;;;;;4985424;28;20354;-52
2022/03/22 05:52:03;;;;;;;29.83;17.15;;;4.70;83.70;;;;;;4985844;28;20122;-53
2022/03/22 05:54:29;;;;;;;27.05;18.10;;;4.80;83.80;;;;;;4935777;28;20042;-54
2022/03/22 05:56:55;;;;;;;26.25;16.33;;;4.80;83.60;;;;;;4985967;28;20050;-53
2022/03/22 05:59:21;;;;;;;28.40;17.00;;;4.70;83.60;;;;;;4988279;28;20809;-52
2022/03/22 06:01:47;;;;;;;26.98;15.13;;;4.50;84.80;;;;;;4982688;28;20109;-54
2022/03/22 06:04:13;;;;;;;21.77;13.98;;;4.20;85.00;;;;;;4952535;28;20762;-52
2022/03/22 06:06:40;;;;;;;27.95;17.02;;;4.10;85.50;;;;;;4990475;28;20042;-53
2022/03/22 06:09:06;;;;;;;27.48;16.98;;;4.30;86.20;;;;;;4990004;28;20031;-53
2022/03/22 06:11:35;;;;;;;29.63;18.30;;;4.50;86.30;;;;;;4988942;28;20030;-53
2022/03/22 06:14:05;;;;;;;40.13;19.73;;;4.60;85.20;;;;;;4994558;28;20038;-52
2022/03/22 06:16:31;;;;;;;26.58;16.75;;;4.70;85.30;;;;;;4986939;28;20454;-53
2022/03/22 06:18:57;;;;;;;206.18;110.68;;;4.80;84.60;;;;;;4986320;28;20720;-53
2022/03/22 06:21:24;;;;;;;126.65;51.17;;;5.00;85.50;;;;;;4993296;28;20022;-52
2022/03/22 06:23:49;;;;;;;232.93;84.45;;;5.00;84.60;;;;;;4966227;28;20550;-52
2022/03/22 06:26:15;;;;;;;177.07;61.13;;;5.10;84.00;;;;;;4981173;28;20130;-52
2022/03/22 06:28:42;;;;;;;109.88;46.38;;;5.30;83.90;;;;;;4988079;28;20092;-53
2022/03/22 06:31:07;;;;;;;30.30;17.42;;;5.30;83.90;;;;;;4991256;28;20030;-53
2022/03/22 06:33:33;;;;;;;76.90;31.45;;;5.50;83.40;;;;;;4986512;28;20022;-54
2022/03/22 06:36:00;;;;;;;76.45;29.60;;;5.70;82.80;;;;;;4945128;28;20035;-53
2022/03/22 06:38:26;;;;;;;63.17;27.27;;;5.90;82.80;;;;;;4988800;28;20450;-53
2022/03/22 06:40:51;;;;;;;117.20;39.33;;;5.90;81.50;;;;;;4980616;28;20449;-53
2022/03/22 06:43:19;;;;;;;28.65;18.83;;;6.00;81.60;;;;;;4968554;28;20039;-54
2022/03/22 06:45:46;;;;;;;47.17;26.45;;;6.40;82.20;;;;;;4936506;28;20042;-53
2022/03/22 06:48:15;;;;;;;38.83;21.75;;;6.50;80.80;;;;;;4992355;28;20030;-52
2022/03/22 06:50:42;;;;;;;24.92;13.77;;;;;;;;;;4992252;28;20041;-54
2022/03/22 06:53:09;;;;;;;30.42;20.40;;;6.70;88.60;;;;;;4985445;28;20505;-54
2022/03/22 06:55:36;;;;;;;28.25;18.45;;;6.90;80.60;;;;;;4991188;28;20026;-53
2022/03/22 06:58:03;;;;;;;25.63;17.73;;;6.90;80.30;;;;;;4985285;28;20034;-54
2022/03/22 07:00:31;;;;;;;31.05;17.77;;;7.00;79.60;;;;;;4941097;28;20042;-53
2022/03/22 07:02:57;;;;;;;26.42;16.88;;;7.10;78.80;;;;;;4981183;28;20105;-53
2022/03/22 07:05:23;;;;;;;27.15;17.92;;;7.40;86.80;;;;;;4963910;28;20047;-53
2022/03/22 07:07:49;;;;;;;22.85;17.38;;;7.70;84.10;;;;;;4963324;28;20523;-54
2022/03/22 07:10:17;;;;;;;26.40;18.70;;;7.80;77.90;;;;;;4964798;28;20039;-54
2022/03/22 07:12:48;;;;;;;21.85;15.93;;;7.80;77.90;;;;;;4950632;28;20039;-52
2022/03/22 07:15:13;;;;;;;26.05;16.73;;;7.90;76.90;;;;;;4967939;28;20050;-54
2022/03/22 07:17:40;;;;;;;27.05;18.63;;;8.20;78.20;;;;;;4972419;28;20030;-52
2022/03/22 07:20:07;;;;;;;25.50;17.65;;;8.30;78.90;;;;;;4967465;28;20047;-53
2022/03/22 07:22:33;;;;;;;25.00;16.08;;;8.40;76.70;;;;;;4947736;28;20141;-52
2022/03/22 07:25:02;;;;;;;52.03;27.08;;;8.30;75.90;;;;;;4951628;28;20109;-53
2022/03/22 07:27:27;;;;;;;29.45;19.08;;;8.40;76.30;;;;;;4968245;28;20063;-54
2022/03/22 07:29:53;;;;;;;27.08;18.05;;;8.40;76.90;;;;;;4966372;28;20097;-54
2022/03/22 07:32:19;;;;;;;30.08;20.30;;;8.60;76.30;;;;;;4968003;28;20019;-53
2022/03/22 07:34:45;;;;;;;30.60;19.15;;;8.90;77.10;;;;;;4916412;28;20038;-54
2022/03/22 07:37:12;;;;;;;24.92;18.20;;;8.80;75.90;;;;;;4979193;28;20065;-53
2022/03/22 07:39:38;;;;;;;26.73;18.52;;;9.00;75.40;;;;;;4981650;28;20026;-54
2022/03/22 07:42:04;;;;;;;27.65;18.00;;;9.20;75.30;;;;;;4984846;28;20030;-52
2022/03/22 07:44:31;;;;;;;27.02;17.90;;;9.30;75.40;;;;;;4930606;28;20069;-54
2022/03/22 07:46:57;;;;;;;30.35;19.20;;;9.60;90.10;;;;;;4984167;28;20049;-54
2022/03/22 07:54:51;;;;;;;29.70;19.30;;;9.50;84.40;;;;;;4983468;28;20110;-52
2022/03/22 07:57:17;;;;;;;30.48;19.60;;;9.40;84.00;;;;;;4987028;28;20120;-53
2022/03/22 07:59:43;;;;;;;22.67;16.15;;;9.50;74.00;;;;;;4986569;28;20031;-52
2022/03/22 08:02:09;;;;;;;27.77;16.83;;;9.60;83.50;;;;;;4985540;28;20066;-51
2022/03/22 08:04:35;;;;;;;25.67;17.33;;;9.80;81.30;;;;;;4983627;28;20072;-52
2022/03/22 08:07:01;;;;;;;30.58;18.55;;;10.10;74.60;;;;;;4968996;28;20478;-52
2022/03/22 08:09:27;;;;;;;30.65;16.10;;;10.40;73.90;;;;;;4966556;28;20042;-52
2022/03/22 08:11:52;;;;;;;25.08;15.98;;;10.50;94.20;;;;;;4982684;28;20446;-51
2022/03/22 08:14:20;;;;;;;25.80;16.92;;;10.70;79.30;;;;;;4981992;28;20074;-52
2022/03/22 08:16:46;;;;;;;28.55;17.88;;;11.10;73.20;;;;;;4985841;28;20581;-59
2022/03/22 08:19:17;;;;;;;32.38;19.58;;;11.10;73.30;;;;;;4982950;28;20031;-54
2022/03/22 08:21:43;;;;;;;32.90;19.67;;;11.50;72.90;;;;;;4980615;28;20039;-56
2022/03/22 08:24:09;;;;;;;35.90;19.10;;;11.90;72.30;;;;;;4993413;28;20041;-57
2022/03/22 08:26:36;;;;;;;37.35;20.73;;;11.90;73.30;;;;;;4988536;28;20498;-56
2022/03/22 08:29:03;;;;;;;33.00;18.55;;;12.40;72.50;;;;;;4979004;28;20093;-54
2022/03/22 08:31:29;;;;;;;35.20;20.55;;;12.30;72.90;;;;;;4992476;28;20124;-54
2022/03/22 08:33:56;;;;;;;28.20;17.65;;;12.40;72.00;;;;;;4982607;28;20496;-54
2022/03/22 08:36:22;;;;;;;35.22;20.83;;;11.90;71.80;;;;;;4989960;28;20050;-57
2022/03/22 08:38:49;;;;;;;32.40;21.85;;;12.40;72.10;;;;;;4987335;28;20031;-56
2022/03/22 08:41:15;;;;;;;29.60;22.65;;;12.60;72.50;;;;;;4989975;28;20038;-57
2022/03/22 08:43:42;;;;;;;33.38;21.73;;;;;;;;;;4982652;28;20165;-56
2022/03/22 08:46:08;;;;;;;28.17;16.60;;;;;;;;;;4984629;28;20055;-54
2022/03/22 08:48:37;;;;;;;35.92;22.13;;;13.30;87.70;;;;;;4986344;28;20502;-54
2022/03/22 08:51:04;;;;;;;22.45;13.20;;;13.40;88.40;;;;;;4982187;28;20073;-57
2022/03/22 08:53:31;;;;;;;37.50;22.27;;;13.00;71.00;;;;;;4978411;28;20033;-54
2022/03/22 08:55:56;;;;;;;26.42;17.95;;;13.60;71.70;;;;;;4974485;28;20415;-57
2022/03/22 08:58:22;;;;;;;30.13;19.88;;;13.50;70.70;;;;;;4975816;28;20094;-54
2022/03/22 09:00:48;;;;;;;28.95;19.30;;;14.00;71.30;;;;;;4979048;28;20471;-59
2022/03/22 09:03:15;;;;;;;28.00;20.33;;;14.30;70.00;;;;;;4979724;28;20045;-56
2022/03/22 09:08:25;;;;;;;22.17;16.48;;;15.10;70.00;;;;;;4983257;28;20049;-48
2022/03/22 09:10:51;;;;;;;20.80;14.25;;;14.90;67.70;;;;;;4986098;28;20022;-55
2022/03/22 09:13:19;;;;;;;25.50;17.52;;;14.90;94.30;;;;;;4980702;28;20035;-53
2022/03/22 09:15:46;;;;;;;29.98;16.73;;;15.30;94.60;;;;;;4985003;28;20054;-52
2022/03/22 09:18:14;;;;;;;20.88;15.25;;;15.30;94.00;;;;;;4985032;28;20117;-52
2022/03/22 09:20:42;;;;;;;17.95;13.98;;;15.40;88.40;;;;;;4987469;28;20034;-53
2022/03/22 09:23:09;;;;;;;20.92;15.55;;;;;;;;;;4980266;28;20490;-52
2022/03/22 09:25:36;;;;;;;27.08;17.90;;;;;;;;;;4945613;28;20530;-53
2022/03/22 09:28:05;;;;;;;23.58;15.85;;;;;;;;;;4980911;28;20046;-53
2022/03/22 09:30:32;;;;;;;19.60;14.40;;;;;;;;;;4979544;28;20038;-53
2022/03/22 09:32:58;;;;;;;20.80;15.98;;;;;;;;;;4981133;28;20043;-53
2022/03/22 09:35:24;;;;;;;20.95;15.35;;;16.00;67.30;;;;;;4991633;28;20050;-52
2022/03/22 09:37:50;;;;;;;28.83;16.08;;;16.00;66.70;;;;;;4987504;28;20049;-52
2022/03/22 09:40:19;;;;;;;22.35;14.95;;;16.20;66.90;;;;;;4975112;28;20545;-53
2022/03/22 09:42:46;;;;;;;25.13;18.02;;;16.40;66.40;;;;;;4970173;28;20051;-52
2022/03/22 09:45:24;;;;;;;21.25;14.98;;;16.50;66.60;;;;;;4982658;28;20043;-53
2022/03/22 09:47:50;;;;;;;23.42;16.50;;;16.50;66.90;;;;;;4913261;28;20574;-53
2022/03/22 09:50:17;;;;;;;27.73;16.50;;;16.80;66.60;;;;;;4954191;29;20427;-52
2022/03/22 09:52:43;;;;;;;22.33;16.58;;;16.20;66.00;;;;;;4951190;29;20500;-53
2022/03/22 09:55:12;;;;;;;20.05;15.35;;;17.00;66.30;;;;;;4904497;29;20040;-52
2022/03/22 09:57:39;;;;;;;20.80;14.40;;;;;;;;;;4924753;29;20039;-52
2022/03/22 10:00:07;;;;;;;20.38;10.82;;;17.90;64.20;;;;;;4931456;29;20115;-53
2022/03/22 10:02:35;;;;;;;26.27;15.60;;;17.60;63.50;;;;;;4926731;29;20062;-53
2022/03/22 10:05:01;;;;;;;24.10;16.35;;;17.70;63.80;;;;;;4918441;29;20113;-53
2022/03/22 10:07:27;;;;;;;22.92;15.35;;;17.80;64.20;;;;;;4920776;29;20130;-52
2022/03/22 10:09:58;;;;;;;22.88;15.20;;;17.60;64.10;;;;;;4923904;29;20043;-53
2022/03/22 10:12:32;;;;;;;19.63;14.73;;;17.90;64.50;;;;;;4926277;29;20052;-52
2022/03/22 10:15:15;;;;;;;22.35;16.38;;;17.60;63.40;;;;;;4927489;29;20032;-53
2022/03/22 10:17:43;;;;;;;25.65;12.27;;;17.70;64.80;;;;;;4933854;28;20189;-53
2022/03/22 10:20:20;;;;;;;21.52;15.30;;;17.40;64.00;;;;;;4992179;28;20031;-53
2022/03/22 10:22:53;;;;;;;19.13;14.43;;;17.70;65.10;;;;;;4988881;28;20105;-53
2022/03/22 10:25:19;;;;;;;28.05;16.27;;;18.00;63.40;;;;;;4990367;28;20026;-53
2022/03/22 10:27:45;;;;;;;19.83;13.13;;;;;;;;;;4989689;28;20042;-55
2022/03/22 10:30:17;;;;;;;18.05;13.85;;;19.00;81.30;;;;;;4981591;28;20041;-52
2022/03/22 10:32:51;;;;;;;18.38;14.13;;;;;;;;;;4983345;28;20049;-54
2022/03/22 10:35:28;;;;;;;18.48;14.05;;;;;;;;;;4985075;28;20052;-52
2022/03/22 10:38:12;;;;;;;19.02;13.20;;;19.00;82.30;;;;;;4965919;28;20039;-52
2022/03/22 10:40:46;;;;;;;20.02;14.40;;;19.10;62.80;;;;;;4985566;28;20104;-52
2022/03/22 10:43:17;;;;;;;20.23;14.82;;;19.10;62.30;;;;;;4986781;28;20541;-52
2022/03/22 10:45:48;;;;;;;18.55;13.88;;;19.10;62.90;;;;;;4987002;28;20113;-52
2022/03/22 10:48:26;;;;;;;19.13;14.25;;;19.10;91.50;;;;;;4975412;28;20394;-53
2022/03/22 10:50:53;;;;;;;15.82;13.23;;;;;;;;;;4989587;28;20040;-53
2022/03/22 10:53:21;;;;;;;22.38;13.98;;;;;;;;;;4991615;28;20045;-52
2022/03/22 10:55:47;;;;;;;17.63;12.10;;;;;;;;;;4984463;28;20043;-52
2022/03/22 10:58:14;;;;;;;20.38;15.52;;;;;;;;;;4995152;28;20022;-53
2022/03/22 11:00:44;;;;;;;19.80;14.25;;;;;;;;;;4958665;28;20066;-54
2022/03/22 11:03:12;;;;;;;19.77;15.35;;;18.90;90.10;;;;;;4991543;28;20030;-53
2022/03/22 11:05:40;;;;;;;19.40;14.43;;;19.00;91.50;;;;;;4936226;28;20565;-53
2022/03/22 11:08:06;;;;;;;24.45;16.67;;;19.40;90.70;;;;;;4952849;28;20105;-53
2022/03/22 11:10:32;;;;;;;24.20;17.23;;;19.60;64.70;;;;;;4990213;28;20030;-52
2022/03/22 11:12:59;;;;;;;21.25;16.33;;;;;;;;;;4990226;28;21363;-51
2022/03/22 11:15:35;;;;;;;21.05;17.10;;;19.60;60.00;;;;;;4988260;28;20077;-53
2022/03/22 11:18:03;;;;;;;21.55;16.52;;;19.80;60.60;;;;;;4916546;29;20036;-50
2022/03/22 11:20:29;;;;;;;20.88;16.63;;;20.00;60.00;;;;;;4950372;29;20050;-51
2022/03/22 11:22:57;;;;;;;21.15;16.45;;;20.00;61.80;;;;;;4949269;29;20107;-51
2022/03/22 11:25:31;;;;;;;20.88;16.13;;;19.80;60.30;;;;;;4903753;29;20387;-50
2022/03/22 11:28:06;;;;;;;19.58;14.25;;;19.80;61.20;;;;;;4944542;29;20059;-51
2022/03/22 11:30:34;;;;;;;19.17;15.30;;;20.40;60.50;;;;;;4951837;29;20567;-51
2022/03/22 11:35:54;;;;;;;23.17;14.63;;;20.80;59.70;;;;;;4943529;29;20460;-51
2022/03/22 11:38:42;;;;;;;17.70;13.57;;;20.50;61.20;;;;;;4951049;29;20043;-51
2022/03/22 11:44:35;;;;;;;17.80;12.90;;;20.20;61.00;;;;;;4946316;29;20139;-52
2022/03/22 11:47:20;;;;;;;17.75;12.65;;;20.20;60.40;;;;;;4932099;29;20507;-51
2022/03/22 11:49:51;;;;;;;15.77;12.57;;;20.40;60.40;;;;;;4929982;28;20051;-52
2022/03/22 11:52:22;;;;;;;16.00;13.38;;;20.60;59.70;;;;;;4987733;28;20447;-51
2022/03/22 11:55:05;;;;;;;23.67;14.93;;;;;;;;;;4990693;28;20397;-52
2022/03/22 11:57:51;;;;;;;19.48;12.80;;;21.10;91.20;;;;;;4985571;28;20040;-52
2022/03/22 12:00:20;;;;;;;17.70;13.75;;;20.60;90.40;;;;;;4981754;28;20074;-52
2022/03/22 12:02:51;;;;;;;16.70;12.02;;;20.60;90.10;;;;;;4987100;28;20121;-53
2022/03/22 12:05:22;;;;;;;14.95;11.60;;;20.20;90.10;;;;;;4983721;28;20035;-49
2022/03/22 12:07:49;;;;;;;15.52;11.30;;;20.50;90.50;;;;;;4986058;28;20050;-49
2022/03/22 12:10:17;;;;;;;16.52;11.30;;;20.50;90.30;;;;;;4987605;28;20072;-48
2022/03/22 12:12:49;;;;;;;15.07;11.07;;;20.50;90.60;;;;;;4984106;28;20382;-50
2022/03/22 12:15:21;;;;;;;14.80;11.02;;;20.90;91.50;;;;;;4977902;28;20057;-49
2022/03/22 12:17:48;;;;;;;15.60;10.45;;;20.80;91.30;;;;;;4985185;28;20042;-48
2022/03/22 12:20:15;;;;;;;14.98;10.00;;;20.00;90.40;;;;;;4979996;28;20038;-48
2022/03/22 12:22:48;;;;;;;13.93;10.82;;;20.30;90.60;;;;;;4976469;28;20411;-55
2022/03/22 12:25:23;;;;;;;13.63;9.18;;;20.70;90.10;;;;;;4978000;28;20034;-52
2022/03/22 12:28:00;;;;;;;18.67;11.15;;;20.00;89.10;;;;;;4979257;28;20038;-50
2022/03/22 12:30:30;;;;;;;13.55;9.52;;;20.20;89.90;;;;;;4986292;28;20049;-50
2022/03/22 12:32:58;;;;;;;12.85;8.65;;;20.80;89.50;;;;;;4986792;28;20482;-50
2022/03/22 12:35:25;;;;;;;14.90;10.70;;;20.40;90.10;;;;;;4954436;28;20103;-50
2022/03/22 12:37:52;;;;;;;16.05;11.85;;;;;;;;;;4988385;28;20591;-51
2022/03/22 12:40:18;;;;;;;17.65;11.32;;;;;;;;;;4992454;28;20040;-49
2022/03/22 12:42:45;;;;;;;15.65;11.75;;;;;;;;;;4988625;28;20041;-53
2022/03/22 12:45:11;;;;;;;14.68;11.18;;;20.90;91.40;;;;;;4988437;28;20105;-59
2022/03/22 12:47:42;;;;;;;14.23;9.57;;;21.10;58.60;;;;;;4989315;28;20161;-60
2022/03/22 12:50:10;;;;;;;15.02;10.07;;;20.80;58.10;;;;;;4987289;28;20031;-58
2022/03/22 12:52:36;;;;;;;19.95;10.88;;;20.80;59.20;;;;;;4989855;28;20042;-53
2022/03/22 12:55:04;;;;;;;13.07;9.93;;;20.50;58.50;;;;;;4990857;28;20037;-54
2022/03/22 12:57:30;;;;;;;17.70;12.38;;;19.90;57.20;;;;;;4989445;28;20030;-48
2022/03/22 12:59:56;;;;;;;14.05;8.85;;;20.20;58.40;;;;;;4982987;28;20037;-51
2022/03/22 13:02:23;;;;;;;13.75;8.68;;;20.40;59.50;;;;;;4988961;28;20445;-50
2022/03/22 13:04:50;;;;;;;15.10;10.38;;;19.80;59.00;;;;;;4982964;28;20041;-50
2022/03/22 13:07:44;;;;;;;21.52;9.70;;;20.00;58.70;;;;;;4966789;28;20057;-50
2022/03/22 13:12:55;;;;;;;19.70;9.85;;;20.00;58.80;;;;;;4980083;28;20050;-50
2022/03/22 13:15:21;;;;;;;15.40;9.77;;;19.90;58.40;;;;;;4987474;28;20050;-50
2022/03/22 13:17:52;;;;;;;14.20;8.25;;;20.20;60.50;;;;;;4991339;28;20034;-50
2022/03/22 13:20:27;;;;;;;14.00;9.52;;;20.30;58.70;;;;;;4983541;28;20041;-51
2022/03/22 13:23:04;;;;;;;16.38;9.68;;;20.30;59.30;;;;;;4985114;28;20483;-49